sensor_id;sensor_type;location;lat;lon;timestamp;P1;durP1;ratioP1;P2;durP2;ratioP2
51459;SDS011;37534;39.772;2.718;2022-09-13T00:01:36;2.58;;;0.82;;
51459;SDS011;37534;39.772;2.718;2022-09-13T00:04:01;1.73;;;1.00;;
51459;SDS011;37534;39.772;2.718;2022-09-13T00:06:28;2.05;;;1.08;;
51459;SDS011;37534;39.772;2.718;2022-09-13T00:08:53;5.50;;;1.17;;
51459;SDS011;37534;39.772;2.718;2022-09-13T00:11:22;1.25;;;0.60;;
51459;SDS011;37534;39.772;2.718;2022-09-13T00:13:49;1.02;;;0.93;;
51459;SDS011;37534;39.772;2.718;2022-09-13T00:16:16;3.15;;;1.23;;
51459;SDS011;37534;39.772;2.718;2022-09-13T00:18:43;2.58;;;1.15;;
51459;SDS011;37534;39.772;2.718;2022-09-13T00:21:10;3.42;;;0.95;;
51459;SDS011;37534;39.772;2.718;2022-09-13T00:23:38;2.63;;;1.20;;
51459;SDS011;37534;39.772;2.718;2022-09-13T00:26:12;2.25;;;0.98;;
51459;SDS011;37534;39.772;2.718;2022-09-13T00:28:39;3.72;;;1.05;;
51459;SDS011;37534;39.772;2.718;2022-09-13T00:31:06;17.88;;;1.40;;
51459;SDS011;37534;39.772;2.718;2022-09-13T00:33:33;7.97;;;1.70;;
51459;SDS011;37534;39.772;2.718;2022-09-13T00:36:02;1.27;;;0.88;;
51459;SDS011;37534;39.772;2.718;2022-09-13T00:38:35;3.67;;;0.90;;
51459;SDS011;37534;39.772;2.718;2022-09-13T00:41:05;4.72;;;0.98;;
51459;SDS011;37534;39.772;2.718;2022-09-13T00:43:40;3.60;;;1.38;;
51459;SDS011;37534;39.772;2.718;2022-09-13T00:46:12;1.33;;;0.77;;
51459;SDS011;37534;39.772;2.718;2022-09-13T00:49:07;1.27;;;0.60;;
51459;SDS011;37534;39.772;2.718;2022-09-13T00:51:38;1.00;;;0.70;;
51459;SDS011;37534;39.772;2.718;2022-09-13T00:54:07;1.65;;;1.00;;
51459;SDS011;37534;39.772;2.718;2022-09-13T00:56:35;0.85;;;0.60;;
51459;SDS011;37534;39.772;2.718;2022-09-13T00:59:06;3.15;;;1.15;;
51459;SDS011;37534;39.772;2.718;2022-09-13T01:01:48;1.42;;;0.88;;
51459;SDS011;37534;39.772;2.718;2022-09-13T01:04:18;5.10;;;0.88;;
51459;SDS011;37534;39.772;2.718;2022-09-13T01:06:46;1.50;;;1.00;;
51459;SDS011;37534;39.772;2.718;2022-09-13T01:09:13;1.27;;;0.88;;
51459;SDS011;37534;39.772;2.718;2022-09-13T01:11:46;3.40;;;1.33;;
51459;SDS011;37534;39.772;2.718;2022-09-13T01:14:17;2.13;;;1.10;;
51459;SDS011;37534;39.772;2.718;2022-09-13T01:16:44;9.23;;;1.58;;
51459;SDS011;37534;39.772;2.718;2022-09-13T01:19:10;2.92;;;1.45;;
51459;SDS011;37534;39.772;2.718;2022-09-13T01:46:22;2.13;;;1.27;;
51459;SDS011;37534;39.772;2.718;2022-09-13T01:57:18;4.75;;;1.52;;
51459;SDS011;37534;39.772;2.718;2022-09-13T01:59:52;1.73;;;1.40;;
51459;SDS011;37534;39.772;2.718;2022-09-13T02:05:23;1.95;;;0.88;;
51459;SDS011;37534;39.772;2.718;2022-09-13T02:08:15;8.02;;;1.73;;
51459;SDS011;37534;39.772;2.718;2022-09-13T02:10:48;3.55;;;1.40;;
51459;SDS011;37534;39.772;2.718;2022-09-13T02:13:20;4.63;;;1.75;;
51459;SDS011;37534;39.772;2.718;2022-09-13T02:15:51;1.80;;;1.20;;
51459;SDS011;37534;39.772;2.718;2022-09-13T02:18:23;7.40;;;1.40;;
51459;SDS011;37534;39.772;2.718;2022-09-13T02:21:03;2.75;;;1.08;;
51459;SDS011;37534;39.772;2.718;2022-09-13T02:23:36;10.20;;;1.40;;
51459;SDS011;37534;39.772;2.718;2022-09-13T02:26:07;2.65;;;1.35;;
51459;SDS011;37534;39.772;2.718;2022-09-13T02:28:36;1.73;;;1.13;;
51459;SDS011;37534;39.772;2.718;2022-09-13T02:31:07;2.40;;;1.48;;
51459;SDS011;37534;39.772;2.718;2022-09-13T02:33:37;8.07;;;1.42;;
51459;SDS011;37534;39.772;2.718;2022-09-13T02:36:14;2.05;;;1.30;;
51459;SDS011;37534;39.772;2.718;2022-09-13T02:38:55;1.92;;;1.33;;
51459;SDS011;37534;39.772;2.718;2022-09-13T02:55:24;4.70;;;1.45;;
51459;SDS011;37534;39.772;2.718;2022-09-13T02:58:43;5.47;;;1.77;;
51459;SDS011;37534;39.772;2.718;2022-09-13T03:01:20;9.60;;;1.77;;
51459;SDS011;37534;39.772;2.718;2022-09-13T03:03:45;3.13;;;1.20;;
51459;SDS011;37534;39.772;2.718;2022-09-13T03:06:11;4.70;;;1.20;;
51459;SDS011;37534;39.772;2.718;2022-09-13T03:08:37;3.30;;;1.23;;
51459;SDS011;37534;39.772;2.718;2022-09-13T03:16:16;5.22;;;1.17;;
51459;SDS011;37534;39.772;2.718;2022-09-13T03:30:00;3.45;;;1.42;;
51459;SDS011;37534;39.772;2.718;2022-09-13T03:38:46;3.30;;;1.27;;
51459;SDS011;37534;39.772;2.718;2022-09-13T03:41:04;2.33;;;1.30;;
51459;SDS011;37534;39.772;2.718;2022-09-13T03:43:50;1.17;;;1.08;;
51459;SDS011;37534;39.772;2.718;2022-09-13T03:46:24;3.53;;;1.33;;
51459;SDS011;37534;39.772;2.718;2022-09-13T03:48:54;2.13;;;1.38;;
51459;SDS011;37534;39.772;2.718;2022-09-13T03:51:22;2.05;;;1.42;;
51459;SDS011;37534;39.772;2.718;2022-09-13T03:53:51;4.88;;;1.52;;
51459;SDS011;37534;39.772;2.718;2022-09-13T03:56:22;2.40;;;1.50;;
51459;SDS011;37534;39.772;2.718;2022-09-13T03:58:49;5.00;;;1.67;;
51459;SDS011;37534;39.772;2.718;2022-09-13T04:01:16;3.03;;;1.60;;
51459;SDS011;37534;39.772;2.718;2022-09-13T04:03:44;2.00;;;1.20;;
51459;SDS011;37534;39.772;2.718;2022-09-13T04:06:09;4.93;;;1.27;;
51459;SDS011;37534;39.772;2.718;2022-09-13T04:08:35;2.72;;;1.75;;
51459;SDS011;37534;39.772;2.718;2022-09-13T04:11:00;6.35;;;1.45;;
51459;SDS011;37534;39.772;2.718;2022-09-13T04:13:26;8.70;;;1.85;;
51459;SDS011;37534;39.772;2.718;2022-09-13T04:15:52;2.60;;;1.23;;
51459;SDS011;37534;39.772;2.718;2022-09-13T04:18:17;8.50;;;1.15;;
51459;SDS011;37534;39.772;2.718;2022-09-13T04:20:42;6.00;;;1.17;;
51459;SDS011;37534;39.772;2.718;2022-09-13T04:23:08;3.33;;;1.40;;
51459;SDS011;37534;39.772;2.718;2022-09-13T04:25:36;6.10;;;1.42;;
51459;SDS011;37534;39.772;2.718;2022-09-13T04:28:03;4.65;;;0.93;;
51459;SDS011;37534;39.772;2.718;2022-09-13T04:30:28;2.08;;;1.38;;
51459;SDS011;37534;39.772;2.718;2022-09-13T04:32:55;2.42;;;1.10;;
51459;SDS011;37534;39.772;2.718;2022-09-13T04:35:21;1.55;;;1.17;;
51459;SDS011;37534;39.772;2.718;2022-09-13T04:37:46;9.60;;;1.40;;
51459;SDS011;37534;39.772;2.718;2022-09-13T04:40:12;1.65;;;0.98;;
51459;SDS011;37534;39.772;2.718;2022-09-13T04:42:38;1.92;;;1.27;;
51459;SDS011;37534;39.772;2.718;2022-09-13T04:45:04;2.55;;;1.45;;
51459;SDS011;37534;39.772;2.718;2022-09-13T04:47:30;2.47;;;1.50;;
51459;SDS011;37534;39.772;2.718;2022-09-13T04:49:56;0.98;;;0.98;;
51459;SDS011;37534;39.772;2.718;2022-09-13T04:52:21;2.33;;;1.08;;
51459;SDS011;37534;39.772;2.718;2022-09-13T04:54:47;4.20;;;1.10;;
51459;SDS011;37534;39.772;2.718;2022-09-13T04:57:14;1.77;;;0.80;;
51459;SDS011;37534;39.772;2.718;2022-09-13T04:59:41;6.53;;;1.38;;
51459;SDS011;37534;39.772;2.718;2022-09-13T05:02:06;2.28;;;1.20;;
51459;SDS011;37534;39.772;2.718;2022-09-13T05:04:35;2.30;;;1.42;;
51459;SDS011;37534;39.772;2.718;2022-09-13T05:07:00;1.02;;;0.85;;
51459;SDS011;37534;39.772;2.718;2022-09-13T05:09:26;2.65;;;1.20;;
51459;SDS011;37534;39.772;2.718;2022-09-13T05:11:51;4.88;;;1.00;;
51459;SDS011;37534;39.772;2.718;2022-09-13T05:14:17;1.40;;;1.30;;
51459;SDS011;37534;39.772;2.718;2022-09-13T05:16:43;2.00;;;1.23;;
51459;SDS011;37534;39.772;2.718;2022-09-13T05:19:09;2.25;;;1.38;;
51459;SDS011;37534;39.772;2.718;2022-09-13T05:21:36;3.20;;;1.25;;
51459;SDS011;37534;39.772;2.718;2022-09-13T05:24:01;10.77;;;1.48;;
51459;SDS011;37534;39.772;2.718;2022-09-13T05:26:28;1.58;;;1.35;;
51459;SDS011;37534;39.772;2.718;2022-09-13T05:28:58;1.83;;;1.20;;
51459;SDS011;37534;39.772;2.718;2022-09-13T05:31:25;9.15;;;2.30;;
51459;SDS011;37534;39.772;2.718;2022-09-13T05:33:57;4.80;;;1.80;;
51459;SDS011;37534;39.772;2.718;2022-09-13T05:36:24;2.35;;;1.42;;
51459;SDS011;37534;39.772;2.718;2022-09-13T05:38:51;5.90;;;2.08;;
51459;SDS011;37534;39.772;2.718;2022-09-13T05:41:18;1.92;;;1.17;;
51459;SDS011;37534;39.772;2.718;2022-09-13T05:43:43;6.78;;;1.65;;
51459;SDS011;37534;39.772;2.718;2022-09-13T05:48:38;9.27;;;1.42;;
51459;SDS011;37534;39.772;2.718;2022-09-13T05:51:05;4.13;;;1.67;;
51459;SDS011;37534;39.772;2.718;2022-09-13T05:53:38;1.63;;;1.40;;
51459;SDS011;37534;39.772;2.718;2022-09-13T05:56:06;5.72;;;1.63;;
51459;SDS011;37534;39.772;2.718;2022-09-13T05:58:33;21.48;;;1.85;;
51459;SDS011;37534;39.772;2.718;2022-09-13T06:01:02;3.63;;;1.80;;
51459;SDS011;37534;39.772;2.718;2022-09-13T06:03:27;4.97;;;1.60;;
51459;SDS011;37534;39.772;2.718;2022-09-13T06:05:53;5.53;;;1.23;;
51459;SDS011;37534;39.772;2.718;2022-09-13T06:08:20;2.60;;;1.20;;
51459;SDS011;37534;39.772;2.718;2022-09-13T06:10:53;2.58;;;1.08;;
51459;SDS011;37534;39.772;2.718;2022-09-13T06:13:29;3.95;;;2.10;;
51459;SDS011;37534;39.772;2.718;2022-09-13T06:15:56;1.30;;;1.08;;
51459;SDS011;37534;39.772;2.718;2022-09-13T06:18:23;4.75;;;2.10;;
51459;SDS011;37534;39.772;2.718;2022-09-13T06:20:50;4.85;;;1.63;;
51459;SDS011;37534;39.772;2.718;2022-09-13T06:23:16;1.63;;;1.33;;
51459;SDS011;37534;39.772;2.718;2022-09-13T06:25:42;5.32;;;1.42;;
51459;SDS011;37534;39.772;2.718;2022-09-13T06:28:08;7.82;;;1.67;;
51459;SDS011;37534;39.772;2.718;2022-09-13T06:30:34;4.80;;;1.90;;
51459;SDS011;37534;39.772;2.718;2022-09-13T06:33:00;4.10;;;1.77;;
51459;SDS011;37534;39.772;2.718;2022-09-13T06:35:26;10.95;;;2.13;;
51459;SDS011;37534;39.772;2.718;2022-09-13T06:37:54;20.25;;;2.80;;
51459;SDS011;37534;39.772;2.718;2022-09-13T06:40:24;13.02;;;2.22;;
51459;SDS011;37534;39.772;2.718;2022-09-13T06:42:49;12.30;;;2.75;;
51459;SDS011;37534;39.772;2.718;2022-09-13T06:45:15;14.45;;;2.72;;
51459;SDS011;37534;39.772;2.718;2022-09-13T06:47:41;4.45;;;2.08;;
51459;SDS011;37534;39.772;2.718;2022-09-13T06:50:06;4.07;;;1.38;;
51459;SDS011;37534;39.772;2.718;2022-09-13T06:52:33;2.55;;;1.30;;
51459;SDS011;37534;39.772;2.718;2022-09-13T06:54:59;9.48;;;2.75;;
51459;SDS011;37534;39.772;2.718;2022-09-13T06:57:24;11.95;;;2.28;;
51459;SDS011;37534;39.772;2.718;2022-09-13T06:59:50;5.55;;;1.95;;
51459;SDS011;37534;39.772;2.718;2022-09-13T07:02:15;2.95;;;1.40;;
51459;SDS011;37534;39.772;2.718;2022-09-13T07:04:41;5.65;;;1.75;;
51459;SDS011;37534;39.772;2.718;2022-09-13T07:07:06;4.50;;;1.90;;
51459;SDS011;37534;39.772;2.718;2022-09-13T07:09:32;8.30;;;4.88;;
51459;SDS011;37534;39.772;2.718;2022-09-13T07:12:00;8.60;;;3.13;;
51459;SDS011;37534;39.772;2.718;2022-09-13T07:14:27;32.65;;;2.95;;
51459;SDS011;37534;39.772;2.718;2022-09-13T07:16:53;4.07;;;2.03;;
51459;SDS011;37534;39.772;2.718;2022-09-13T07:19:20;7.97;;;2.40;;
51459;SDS011;37534;39.772;2.718;2022-09-13T07:21:48;7.15;;;2.15;;
51459;SDS011;37534;39.772;2.718;2022-09-13T07:24:14;5.20;;;1.95;;
51459;SDS011;37534;39.772;2.718;2022-09-13T07:26:43;10.48;;;2.30;;
51459;SDS011;37534;39.772;2.718;2022-09-13T07:29:11;12.68;;;2.88;;
51459;SDS011;37534;39.772;2.718;2022-09-13T07:31:44;4.63;;;2.75;;
51459;SDS011;37534;39.772;2.718;2022-09-13T07:34:12;10.35;;;3.60;;
51459;SDS011;37534;39.772;2.718;2022-09-13T07:36:39;8.48;;;3.25;;
51459;SDS011;37534;39.772;2.718;2022-09-13T07:39:06;5.97;;;3.38;;
51459;SDS011;37534;39.772;2.718;2022-09-13T07:41:32;7.90;;;3.10;;
51459;SDS011;37534;39.772;2.718;2022-09-13T07:43:59;5.32;;;2.58;;
51459;SDS011;37534;39.772;2.718;2022-09-13T07:46:26;9.00;;;2.38;;
51459;SDS011;37534;39.772;2.718;2022-09-13T07:48:56;9.27;;;3.28;;
51459;SDS011;37534;39.772;2.718;2022-09-13T07:51:26;7.95;;;2.65;;
51459;SDS011;37534;39.772;2.718;2022-09-13T07:53:54;2.75;;;2.17;;
51459;SDS011;37534;39.772;2.718;2022-09-13T07:56:22;8.98;;;2.50;;
51459;SDS011;37534;39.772;2.718;2022-09-13T07:58:52;2.95;;;1.70;;
51459;SDS011;37534;39.772;2.718;2022-09-13T08:01:32;6.43;;;1.92;;
51459;SDS011;37534;39.772;2.718;2022-09-13T08:04:01;18.08;;;2.30;;
51459;SDS011;37534;39.772;2.718;2022-09-13T08:06:29;5.22;;;1.60;;
51459;SDS011;37534;39.772;2.718;2022-09-13T08:08:56;9.38;;;2.13;;
51459;SDS011;37534;39.772;2.718;2022-09-13T08:11:32;3.10;;;1.60;;
51459;SDS011;37534;39.772;2.718;2022-09-13T08:14:02;1.92;;;1.70;;
51459;SDS011;37534;39.772;2.718;2022-09-13T08:16:29;2.90;;;1.50;;
51459;SDS011;37534;39.772;2.718;2022-09-13T08:18:56;1.77;;;1.10;;
51459;SDS011;37534;39.772;2.718;2022-09-13T08:21:23;3.60;;;1.50;;
51459;SDS011;37534;39.772;2.718;2022-09-13T08:23:53;2.80;;;1.20;;
51459;SDS011;37534;39.772;2.718;2022-09-13T08:26:20;1.20;;;0.90;;
51459;SDS011;37534;39.772;2.718;2022-09-13T08:28:46;3.08;;;1.15;;
51459;SDS011;37534;39.772;2.718;2022-09-13T08:31:12;6.65;;;2.40;;
51459;SDS011;37534;39.772;2.718;2022-09-13T08:33:44;5.03;;;1.88;;
51459;SDS011;37534;39.772;2.718;2022-09-13T08:36:11;2.63;;;1.25;;
51459;SDS011;37534;39.772;2.718;2022-09-13T08:38:36;7.32;;;2.10;;
51459;SDS011;37534;39.772;2.718;2022-09-13T08:41:03;2.90;;;1.02;;
51459;SDS011;37534;39.772;2.718;2022-09-13T08:46:28;5.93;;;1.90;;
51459;SDS011;37534;39.772;2.718;2022-09-13T08:48:59;3.22;;;1.50;;
51459;SDS011;37534;39.772;2.718;2022-09-13T08:51:41;4.85;;;1.60;;
51459;SDS011;37534;39.772;2.718;2022-09-13T08:54:31;5.30;;;2.08;;
51459;SDS011;37534;39.772;2.718;2022-09-13T08:57:08;34.22;;;1.95;;
51459;SDS011;37534;39.772;2.718;2022-09-13T09:00:12;6.47;;;1.88;;
51459;SDS011;37534;39.772;2.718;2022-09-13T09:03:20;6.93;;;1.38;;
51459;SDS011;37534;39.772;2.718;2022-09-13T09:05:59;7.00;;;1.50;;
51459;SDS011;37534;39.772;2.718;2022-09-13T09:11:06;8.07;;;2.03;;
51459;SDS011;37534;39.772;2.718;2022-09-13T09:13:48;10.90;;;2.40;;
51459;SDS011;37534;39.772;2.718;2022-09-13T09:19:10;3.33;;;1.65;;
51459;SDS011;37534;39.772;2.718;2022-09-13T09:21:49;5.85;;;2.28;;
51459;SDS011;37534;39.772;2.718;2022-09-13T09:24:22;10.48;;;2.03;;
51459;SDS011;37534;39.772;2.718;2022-09-13T09:26:49;14.13;;;2.25;;
51459;SDS011;37534;39.772;2.718;2022-09-13T09:29:18;10.57;;;1.85;;
51459;SDS011;37534;39.772;2.718;2022-09-13T09:37:21;4.03;;;2.47;;
51459;SDS011;37534;39.772;2.718;2022-09-13T09:39:51;7.38;;;1.83;;
51459;SDS011;37534;39.772;2.718;2022-09-13T09:42:21;11.07;;;2.90;;
51459;SDS011;37534;39.772;2.718;2022-09-13T09:44:51;8.60;;;2.42;;
51459;SDS011;37534;39.772;2.718;2022-09-13T09:47:22;7.53;;;2.30;;
51459;SDS011;37534;39.772;2.718;2022-09-13T09:52:40;8.32;;;2.35;;
51459;SDS011;37534;39.772;2.718;2022-09-13T09:55:15;10.75;;;2.63;;
51459;SDS011;37534;39.772;2.718;2022-09-13T09:58:02;12.13;;;2.55;;
51459;SDS011;37534;39.772;2.718;2022-09-13T10:00:34;10.43;;;2.03;;
51459;SDS011;37534;39.772;2.718;2022-09-13T10:03:13;8.55;;;1.98;;
51459;SDS011;37534;39.772;2.718;2022-09-13T10:05:42;10.55;;;2.45;;
51459;SDS011;37534;39.772;2.718;2022-09-13T10:08:11;3.47;;;1.52;;
51459;SDS011;37534;39.772;2.718;2022-09-13T10:10:55;4.90;;;1.92;;
51459;SDS011;37534;39.772;2.718;2022-09-13T10:13:24;4.30;;;1.67;;
51459;SDS011;37534;39.772;2.718;2022-09-13T10:15:58;2.80;;;1.40;;
51459;SDS011;37534;39.772;2.718;2022-09-13T10:18:31;5.38;;;1.60;;
51459;SDS011;37534;39.772;2.718;2022-09-13T10:23:28;4.63;;;1.80;;
51459;SDS011;37534;39.772;2.718;2022-09-13T10:29:13;4.53;;;2.13;;
51459;SDS011;37534;39.772;2.718;2022-09-13T10:31:34;12.82;;;2.83;;
51459;SDS011;37534;39.772;2.718;2022-09-13T10:34:06;14.70;;;3.47;;
51459;SDS011;37534;39.772;2.718;2022-09-13T10:36:41;10.95;;;2.03;;
51459;SDS011;37534;39.772;2.718;2022-09-13T10:39:19;3.67;;;1.40;;
51459;SDS011;37534;39.772;2.718;2022-09-13T10:44:29;5.97;;;1.33;;
51459;SDS011;37534;39.772;2.718;2022-09-13T10:47:05;9.40;;;1.65;;
51459;SDS011;37534;39.772;2.718;2022-09-13T10:57:40;6.05;;;1.88;;
51459;SDS011;37534;39.772;2.718;2022-09-13T11:00:06;3.95;;;2.00;;
51459;SDS011;37534;39.772;2.718;2022-09-13T11:20:50;7.00;;;2.47;;
51459;SDS011;37534;39.772;2.718;2022-09-13T11:29:24;4.90;;;1.90;;
51459;SDS011;37534;39.772;2.718;2022-09-13T11:41:35;8.95;;;1.80;;
51459;SDS011;37534;39.772;2.718;2022-09-13T11:56:20;5.07;;;1.38;;
51459;SDS011;37534;39.772;2.718;2022-09-13T11:58:59;10.55;;;1.58;;
51459;SDS011;37534;39.772;2.718;2022-09-13T12:01:35;1.70;;;1.00;;
51459;SDS011;37534;39.772;2.718;2022-09-13T12:04:06;3.33;;;1.48;;
51459;SDS011;37534;39.772;2.718;2022-09-13T12:06:42;8.75;;;1.90;;
51459;SDS011;37534;39.772;2.718;2022-09-13T12:09:23;4.47;;;2.00;;
51459;SDS011;37534;39.772;2.718;2022-09-13T12:11:55;8.32;;;1.65;;
51459;SDS011;37534;39.772;2.718;2022-09-13T12:14:40;4.03;;;1.52;;
51459;SDS011;37534;39.772;2.718;2022-09-13T12:17:20;4.38;;;2.30;;
51459;SDS011;37534;39.772;2.718;2022-09-13T12:19:51;6.00;;;3.00;;
51459;SDS011;37534;39.772;2.718;2022-09-13T12:22:21;5.13;;;1.60;;
51459;SDS011;37534;39.772;2.718;2022-09-13T12:24:53;5.00;;;1.42;;
51459;SDS011;37534;39.772;2.718;2022-09-13T12:27:30;6.03;;;1.77;;
51459;SDS011;37534;39.772;2.718;2022-09-13T12:30:19;9.30;;;1.35;;
51459;SDS011;37534;39.772;2.718;2022-09-13T12:32:47;7.85;;;2.08;;
51459;SDS011;37534;39.772;2.718;2022-09-13T12:40:44;8.20;;;1.90;;
51459;SDS011;37534;39.772;2.718;2022-09-13T13:00:31;6.22;;;1.95;;
51459;SDS011;37534;39.772;2.718;2022-09-13T13:05:43;5.43;;;1.80;;
51459;SDS011;37534;39.772;2.718;2022-09-13T13:16:30;1.83;;;1.30;;
51459;SDS011;37534;39.772;2.718;2022-09-13T13:25:24;8.93;;;2.33;;
51459;SDS011;37534;39.772;2.718;2022-09-13T13:27:54;4.95;;;1.77;;
51459;SDS011;37534;39.772;2.718;2022-09-13T13:33:13;5.90;;;1.60;;
51459;SDS011;37534;39.772;2.718;2022-09-13T13:35:41;3.00;;;1.60;;
51459;SDS011;37534;39.772;2.718;2022-09-13T13:38:18;5.03;;;1.50;;
51459;SDS011;37534;39.772;2.718;2022-09-13T13:41:35;7.10;;;2.40;;
51459;SDS011;37534;39.772;2.718;2022-09-13T13:46:49;10.45;;;2.10;;
51459;SDS011;37534;39.772;2.718;2022-09-13T13:57:01;5.60;;;1.88;;
51459;SDS011;37534;39.772;2.718;2022-09-13T13:59:30;10.63;;;2.63;;
51459;SDS011;37534;39.772;2.718;2022-09-13T14:01:57;11.52;;;2.60;;
51459;SDS011;37534;39.772;2.718;2022-09-13T14:04:33;5.85;;;2.45;;
51459;SDS011;37534;39.772;2.718;2022-09-13T14:18:02;11.43;;;2.17;;
51459;SDS011;37534;39.772;2.718;2022-09-13T14:21:08;8.60;;;2.63;;
51459;SDS011;37534;39.772;2.718;2022-09-13T14:24:34;6.40;;;2.15;;
51459;SDS011;37534;39.772;2.718;2022-09-13T14:26:47;11.13;;;2.47;;
51459;SDS011;37534;39.772;2.718;2022-09-13T14:29:17;7.05;;;2.10;;
51459;SDS011;37534;39.772;2.718;2022-09-13T14:31:45;5.53;;;2.10;;
51459;SDS011;37534;39.772;2.718;2022-09-13T14:34:22;2.35;;;1.60;;
51459;SDS011;37534;39.772;2.718;2022-09-13T14:36:52;11.77;;;2.08;;
51459;SDS011;37534;39.772;2.718;2022-09-13T14:39:19;8.30;;;1.95;;
51459;SDS011;37534;39.772;2.718;2022-09-13T14:41:45;23.30;;;2.65;;
51459;SDS011;37534;39.772;2.718;2022-09-13T14:44:19;7.15;;;2.10;;
51459;SDS011;37534;39.772;2.718;2022-09-13T14:46:47;6.50;;;2.05;;
51459;SDS011;37534;39.772;2.718;2022-09-13T14:49:28;12.40;;;2.45;;
51459;SDS011;37534;39.772;2.718;2022-09-13T14:52:01;8.13;;;3.33;;
51459;SDS011;37534;39.772;2.718;2022-09-13T14:54:39;8.38;;;2.13;;
51459;SDS011;37534;39.772;2.718;2022-09-13T14:57:20;4.53;;;1.85;;
51459;SDS011;37534;39.772;2.718;2022-09-13T14:59:51;12.23;;;1.90;;
51459;SDS011;37534;39.772;2.718;2022-09-13T15:04:52;4.72;;;1.98;;
51459;SDS011;37534;39.772;2.718;2022-09-13T15:07:30;2.85;;;1.75;;
51459;SDS011;37534;39.772;2.718;2022-09-13T15:15:23;4.82;;;1.80;;
51459;SDS011;37534;39.772;2.718;2022-09-13T15:17:57;8.45;;;2.35;;
51459;SDS011;37534;39.772;2.718;2022-09-13T15:20:25;3.38;;;1.88;;
51459;SDS011;37534;39.772;2.718;2022-09-13T15:22:52;5.25;;;2.00;;
51459;SDS011;37534;39.772;2.718;2022-09-13T15:25:20;12.07;;;2.15;;
51459;SDS011;37534;39.772;2.718;2022-09-13T15:27:49;2.88;;;1.50;;
51459;SDS011;37534;39.772;2.718;2022-09-13T15:30:24;7.05;;;1.70;;
51459;SDS011;37534;39.772;2.718;2022-09-13T15:33:02;3.90;;;1.60;;
51459;SDS011;37534;39.772;2.718;2022-09-13T15:40:47;2.72;;;1.60;;
51459;SDS011;37534;39.772;2.718;2022-09-13T15:43:41;9.60;;;3.25;;
51459;SDS011;37534;39.772;2.718;2022-09-13T15:46:08;6.72;;;2.90;;
51459;SDS011;37534;39.772;2.718;2022-09-13T15:48:45;4.30;;;2.20;;
51459;SDS011;37534;39.772;2.718;2022-09-13T15:51:16;7.15;;;1.75;;
51459;SDS011;37534;39.772;2.718;2022-09-13T15:53:42;5.03;;;2.03;;
51459;SDS011;37534;39.772;2.718;2022-09-13T15:56:11;4.32;;;2.30;;
51459;SDS011;37534;39.772;2.718;2022-09-13T15:58:39;10.57;;;1.98;;
51459;SDS011;37534;39.772;2.718;2022-09-13T16:01:05;7.30;;;2.15;;
51459;SDS011;37534;39.772;2.718;2022-09-13T16:03:34;7.95;;;2.35;;
51459;SDS011;37534;39.772;2.718;2022-09-13T16:05:59;9.23;;;2.42;;
51459;SDS011;37534;39.772;2.718;2022-09-13T16:08:25;5.82;;;2.15;;
51459;SDS011;37534;39.772;2.718;2022-09-13T16:10:50;3.45;;;1.67;;
51459;SDS011;37534;39.772;2.718;2022-09-13T16:13:16;8.15;;;2.15;;
51459;SDS011;37534;39.772;2.718;2022-09-13T16:15:42;3.20;;;1.83;;
51459;SDS011;37534;39.772;2.718;2022-09-13T16:18:07;5.05;;;1.63;;
51459;SDS011;37534;39.772;2.718;2022-09-13T16:20:34;22.00;;;2.25;;
51459;SDS011;37534;39.772;2.718;2022-09-13T16:22:59;16.80;;;2.53;;
51459;SDS011;37534;39.772;2.718;2022-09-13T16:25:25;4.65;;;1.92;;
51459;SDS011;37534;39.772;2.718;2022-09-13T16:27:50;9.15;;;2.05;;
51459;SDS011;37534;39.772;2.718;2022-09-13T16:30:18;4.13;;;2.10;;
51459;SDS011;37534;39.772;2.718;2022-09-13T16:32:46;10.60;;;2.38;;
51459;SDS011;37534;39.772;2.718;2022-09-13T16:35:13;5.88;;;2.00;;
51459;SDS011;37534;39.772;2.718;2022-09-13T16:37:40;7.75;;;1.95;;
51459;SDS011;37534;39.772;2.718;2022-09-13T16:40:07;9.05;;;2.22;;
51459;SDS011;37534;39.772;2.718;2022-09-13T16:42:34;5.43;;;1.52;;
51459;SDS011;37534;39.772;2.718;2022-09-13T16:45:00;6.43;;;2.13;;
51459;SDS011;37534;39.772;2.718;2022-09-13T16:47:26;9.15;;;2.13;;
51459;SDS011;37534;39.772;2.718;2022-09-13T16:49:51;5.88;;;1.98;;
51459;SDS011;37534;39.772;2.718;2022-09-13T16:52:18;9.00;;;1.85;;
51459;SDS011;37534;39.772;2.718;2022-09-13T16:54:43;7.65;;;2.05;;
51459;SDS011;37534;39.772;2.718;2022-09-13T16:57:13;6.40;;;1.90;;
51459;SDS011;37534;39.772;2.718;2022-09-13T16:59:39;12.00;;;2.13;;
51459;SDS011;37534;39.772;2.718;2022-09-13T17:02:10;10.10;;;2.65;;
51459;SDS011;37534;39.772;2.718;2022-09-13T17:04:36;7.45;;;2.35;;
51459;SDS011;37534;39.772;2.718;2022-09-13T17:07:01;7.82;;;1.70;;
51459;SDS011;37534;39.772;2.718;2022-09-13T17:09:29;5.63;;;1.73;;
51459;SDS011;37534;39.772;2.718;2022-09-13T17:11:56;4.70;;;1.95;;
51459;SDS011;37534;39.772;2.718;2022-09-13T17:14:22;11.93;;;2.30;;
51459;SDS011;37534;39.772;2.718;2022-09-13T17:16:49;5.93;;;1.65;;
51459;SDS011;37534;39.772;2.718;2022-09-13T17:19:17;4.65;;;1.90;;
51459;SDS011;37534;39.772;2.718;2022-09-13T17:21:48;10.20;;;2.03;;
51459;SDS011;37534;39.772;2.718;2022-09-13T17:24:14;4.20;;;2.30;;
51459;SDS011;37534;39.772;2.718;2022-09-13T17:26:40;3.92;;;2.33;;
51459;SDS011;37534;39.772;2.718;2022-09-13T17:29:07;13.38;;;2.10;;
51459;SDS011;37534;39.772;2.718;2022-09-13T17:31:32;8.02;;;1.77;;
51459;SDS011;37534;39.772;2.718;2022-09-13T17:33:58;11.15;;;2.78;;
51459;SDS011;37534;39.772;2.718;2022-09-13T17:36:24;9.02;;;2.20;;
51459;SDS011;37534;39.772;2.718;2022-09-13T17:38:53;5.82;;;1.90;;
51459;SDS011;37534;39.772;2.718;2022-09-13T17:41:20;13.65;;;2.10;;
51459;SDS011;37534;39.772;2.718;2022-09-13T17:43:46;5.35;;;2.28;;
51459;SDS011;37534;39.772;2.718;2022-09-13T17:46:12;5.45;;;1.83;;
51459;SDS011;37534;39.772;2.718;2022-09-13T17:48:40;7.60;;;2.10;;
51459;SDS011;37534;39.772;2.718;2022-09-13T17:51:07;5.32;;;1.98;;
51459;SDS011;37534;39.772;2.718;2022-09-13T17:53:42;5.65;;;1.85;;
51459;SDS011;37534;39.772;2.718;2022-09-13T17:56:10;5.20;;;1.88;;
51459;SDS011;37534;39.772;2.718;2022-09-13T17:58:37;5.53;;;1.42;;
51459;SDS011;37534;39.772;2.718;2022-09-13T18:01:03;3.10;;;1.67;;
51459;SDS011;37534;39.772;2.718;2022-09-13T18:03:33;14.75;;;3.03;;
51459;SDS011;37534;39.772;2.718;2022-09-13T18:06:00;4.28;;;2.38;;
51459;SDS011;37534;39.772;2.718;2022-09-13T18:08:27;6.20;;;2.30;;
51459;SDS011;37534;39.772;2.718;2022-09-13T18:11:00;10.80;;;2.88;;
51459;SDS011;37534;39.772;2.718;2022-09-13T18:13:29;18.13;;;2.75;;
51459;SDS011;37534;39.772;2.718;2022-09-13T18:18:29;11.85;;;2.35;;
51459;SDS011;37534;39.772;2.718;2022-09-13T18:20:55;11.73;;;1.95;;
51459;SDS011;37534;39.772;2.718;2022-09-13T18:23:22;8.80;;;2.47;;
51459;SDS011;37534;39.772;2.718;2022-09-13T18:25:58;5.65;;;1.45;;
51459;SDS011;37534;39.772;2.718;2022-09-13T18:28:45;5.15;;;2.10;;
51459;SDS011;37534;39.772;2.718;2022-09-13T18:31:12;6.18;;;1.73;;
51459;SDS011;37534;39.772;2.718;2022-09-13T18:33:39;8.13;;;2.00;;
51459;SDS011;37534;39.772;2.718;2022-09-13T18:36:06;5.38;;;2.13;;
51459;SDS011;37534;39.772;2.718;2022-09-13T18:38:34;3.40;;;1.55;;
51459;SDS011;37534;39.772;2.718;2022-09-13T18:43:39;7.45;;;2.30;;
51459;SDS011;37534;39.772;2.718;2022-09-13T18:46:07;4.10;;;1.80;;
51459;SDS011;37534;39.772;2.718;2022-09-13T18:48:36;8.32;;;2.53;;
51459;SDS011;37534;39.772;2.718;2022-09-13T18:51:02;7.57;;;2.05;;
51459;SDS011;37534;39.772;2.718;2022-09-13T18:53:29;6.47;;;1.90;;
51459;SDS011;37534;39.772;2.718;2022-09-13T18:55:58;10.00;;;2.05;;
51459;SDS011;37534;39.772;2.718;2022-09-13T18:58:25;7.03;;;2.17;;
51459;SDS011;37534;39.772;2.718;2022-09-13T19:01:38;7.72;;;2.47;;